sensor_id;sensor_type;location;lat;lon;timestamp;P1;durP1;ratioP1;P2;durP2;ratioP2
27778;SDS011;30234;48.090;11.464;2023-03-23T00:02:02;1.48;;;1.38;;
27778;SDS011;30234;48.090;11.464;2023-03-23T00:06:03;2.03;;;1.38;;
27778;SDS011;30234;48.090;11.464;2023-03-23T00:10:07;3.47;;;1.58;;
27778;SDS011;30234;48.090;11.464;2023-03-23T00:14:09;2.50;;;1.73;;
27778;SDS011;30234;48.090;11.464;2023-03-23T00:18:14;5.75;;;2.85;;
27778;SDS011;30234;48.090;11.464;2023-03-23T00:22:22;2.92;;;1.42;;
27778;SDS011;30234;48.090;11.464;2023-03-23T00:26:25;3.15;;;1.77;;
27778;SDS011;30234;48.090;11.464;2023-03-23T00:30:28;6.97;;;1.70;;
27778;SDS011;30234;48.090;11.464;2023-03-23T00:34:29;3.70;;;1.40;;
27778;SDS011;30234;48.090;11.464;2023-03-23T00:38:32;2.97;;;1.75;;
27778;SDS011;30234;48.090;11.464;2023-03-23T00:42:33;3.17;;;1.73;;
27778;SDS011;30234;48.090;11.464;2023-03-23T00:46:37;2.15;;;1.48;;
27778;SDS011;30234;48.090;11.464;2023-03-23T00:50:44;2.45;;;1.50;;
27778;SDS011;30234;48.090;11.464;2023-03-23T00:54:45;2.53;;;2.25;;
27778;SDS011;30234;48.090;11.464;2023-03-23T00:58:46;1.83;;;1.60;;
27778;SDS011;30234;48.090;11.464;2023-03-23T01:02:47;3.10;;;1.55;;
27778;SDS011;30234;48.090;11.464;2023-03-23T01:06:51;2.72;;;1.75;;
27778;SDS011;30234;48.090;11.464;2023-03-23T01:10:52;2.75;;;1.60;;
27778;SDS011;30234;48.090;11.464;2023-03-23T01:15:04;2.15;;;1.60;;
27778;SDS011;30234;48.090;11.464;2023-03-23T01:19:06;2.83;;;1.48;;
27778;SDS011;30234;48.090;11.464;2023-03-23T01:23:07;2.53;;;1.30;;
27778;SDS011;30234;48.090;11.464;2023-03-23T01:27:08;2.75;;;1.60;;
27778;SDS011;30234;48.090;11.464;2023-03-23T01:31:10;2.65;;;1.80;;
27778;SDS011;30234;48.090;11.464;2023-03-23T01:35:17;2.15;;;1.67;;
27778;SDS011;30234;48.090;11.464;2023-03-23T01:39:18;3.70;;;1.60;;
27778;SDS011;30234;48.090;11.464;2023-03-23T01:43:19;2.70;;;1.60;;
27778;SDS011;30234;48.090;11.464;2023-03-23T01:47:20;1.60;;;1.50;;
27778;SDS011;30234;48.090;11.464;2023-03-23T01:51:26;4.45;;;1.35;;
27778;SDS011;30234;48.090;11.464;2023-03-23T01:55:28;2.00;;;1.50;;
27778;SDS011;30234;48.090;11.464;2023-03-23T01:59:30;5.18;;;1.83;;
27778;SDS011;30234;48.090;11.464;2023-03-23T02:03:34;2.83;;;1.33;;
27778;SDS011;30234;48.090;11.464;2023-03-23T02:07:36;3.35;;;1.40;;
27778;SDS011;30234;48.090;11.464;2023-03-23T02:11:37;1.45;;;1.33;;
27778;SDS011;30234;48.090;11.464;2023-03-23T02:20:33;3.83;;;1.52;;
27778;SDS011;30234;48.090;11.464;2023-03-23T02:34:12;1.45;;;1.30;;
27778;SDS011;30234;48.090;11.464;2023-03-23T02:42:41;3.15;;;1.92;;
27778;SDS011;30234;48.090;11.464;2023-03-23T02:46:46;1.48;;;1.20;;
27778;SDS011;30234;48.090;11.464;2023-03-23T02:50:49;1.90;;;1.50;;
27778;SDS011;30234;48.090;11.464;2023-03-23T02:54:52;3.00;;;1.15;;
27778;SDS011;30234;48.090;11.464;2023-03-23T02:58:56;2.38;;;1.40;;
27778;SDS011;30234;48.090;11.464;2023-03-23T03:02:57;7.35;;;3.85;;
27778;SDS011;30234;48.090;11.464;2023-03-23T03:07:17;4.93;;;1.73;;
27778;SDS011;30234;48.090;11.464;2023-03-23T03:11:50;6.85;;;2.05;;
27778;SDS011;30234;48.090;11.464;2023-03-23T03:16:14;1.90;;;1.50;;
27778;SDS011;30234;48.090;11.464;2023-03-23T03:20:32;2.25;;;1.45;;
27778;SDS011;30234;48.090;11.464;2023-03-23T03:24:38;3.25;;;1.65;;
27778;SDS011;30234;48.090;11.464;2023-03-23T03:28:45;1.88;;;1.48;;
27778;SDS011;30234;48.090;11.464;2023-03-23T03:32:49;3.03;;;1.63;;
27778;SDS011;30234;48.090;11.464;2023-03-23T03:36:54;2.92;;;2.13;;
27778;SDS011;30234;48.090;11.464;2023-03-23T03:40:58;1.50;;;1.33;;
27778;SDS011;30234;48.090;11.464;2023-03-23T03:44:59;2.30;;;1.33;;
27778;SDS011;30234;48.090;11.464;2023-03-23T03:49:01;2.35;;;1.30;;
27778;SDS011;30234;48.090;11.464;2023-03-23T03:53:04;4.43;;;1.50;;
27778;SDS011;30234;48.090;11.464;2023-03-23T03:57:06;3.00;;;1.65;;
27778;SDS011;30234;48.090;11.464;2023-03-23T04:01:08;1.50;;;1.40;;
27778;SDS011;30234;48.090;11.464;2023-03-23T04:05:10;3.22;;;1.50;;
27778;SDS011;30234;48.090;11.464;2023-03-23T04:09:11;3.53;;;1.52;;
27778;SDS011;30234;48.090;11.464;2023-03-23T04:13:13;6.90;;;1.85;;
27778;SDS011;30234;48.090;11.464;2023-03-23T04:17:14;2.03;;;1.65;;
27778;SDS011;30234;48.090;11.464;2023-03-23T04:21:17;2.30;;;1.60;;
27778;SDS011;30234;48.090;11.464;2023-03-23T04:25:18;1.92;;;1.50;;
27778;SDS011;30234;48.090;11.464;2023-03-23T04:29:23;1.95;;;1.55;;
27778;SDS011;30234;48.090;11.464;2023-03-23T04:33:24;1.67;;;1.27;;
27778;SDS011;30234;48.090;11.464;2023-03-23T04:37:27;2.38;;;1.50;;
27778;SDS011;30234;48.090;11.464;2023-03-23T04:41:34;1.85;;;1.40;;
27778;SDS011;30234;48.090;11.464;2023-03-23T04:45:40;1.85;;;1.40;;
27778;SDS011;30234;48.090;11.464;2023-03-23T04:49:46;7.47;;;3.60;;
27778;SDS011;30234;48.090;11.464;2023-03-23T04:53:47;3.03;;;1.10;;
27778;SDS011;30234;48.090;11.464;2023-03-23T04:57:48;1.35;;;1.02;;
27778;SDS011;30234;48.090;11.464;2023-03-23T05:01:49;1.73;;;1.42;;
27778;SDS011;30234;48.090;11.464;2023-03-23T05:05:50;1.75;;;1.50;;
27778;SDS011;30234;48.090;11.464;2023-03-23T05:09:52;3.15;;;1.27;;
27778;SDS011;30234;48.090;11.464;2023-03-23T05:13:53;1.48;;;1.20;;
27778;SDS011;30234;48.090;11.464;2023-03-23T05:17:54;1.20;;;1.10;;
27778;SDS011;30234;48.090;11.464;2023-03-23T05:21:59;1.45;;;1.35;;
27778;SDS011;30234;48.090;11.464;2023-03-23T05:26:03;2.40;;;1.50;;
27778;SDS011;30234;48.090;11.464;2023-03-23T05:30:07;1.27;;;1.17;;
27778;SDS011;30234;48.090;11.464;2023-03-23T05:34:08;1.60;;;1.33;;
27778;SDS011;30234;48.090;11.464;2023-03-23T05:38:09;2.20;;;1.20;;
27778;SDS011;30234;48.090;11.464;2023-03-23T05:42:10;5.82;;;1.50;;
27778;SDS011;30234;48.090;11.464;2023-03-23T05:46:11;1.67;;;1.30;;
27778;SDS011;30234;48.090;11.464;2023-03-23T05:50:12;1.95;;;1.40;;
27778;SDS011;30234;48.090;11.464;2023-03-23T05:54:13;1.85;;;1.30;;
27778;SDS011;30234;48.090;11.464;2023-03-23T05:58:14;3.25;;;1.40;;
27778;SDS011;30234;48.090;11.464;2023-03-23T06:02:15;2.15;;;1.23;;
27778;SDS011;30234;48.090;11.464;2023-03-23T06:06:16;1.88;;;1.50;;
27778;SDS011;30234;48.090;11.464;2023-03-23T06:10:18;5.50;;;1.60;;
27778;SDS011;30234;48.090;11.464;2023-03-23T06:14:19;1.55;;;1.15;;
27778;SDS011;30234;48.090;11.464;2023-03-23T06:18:20;4.22;;;1.45;;
27778;SDS011;30234;48.090;11.464;2023-03-23T06:22:21;4.45;;;1.23;;
27778;SDS011;30234;48.090;11.464;2023-03-23T06:26:23;3.15;;;1.35;;
27778;SDS011;30234;48.090;11.464;2023-03-23T06:30:31;3.53;;;1.15;;
27778;SDS011;30234;48.090;11.464;2023-03-23T06:34:32;2.88;;;1.30;;
27778;SDS011;30234;48.090;11.464;2023-03-23T06:38:33;1.60;;;1.20;;
27778;SDS011;30234;48.090;11.464;2023-03-23T06:42:34;1.90;;;1.40;;
27778;SDS011;30234;48.090;11.464;2023-03-23T06:46:35;4.57;;;1.63;;
27778;SDS011;30234;48.090;11.464;2023-03-23T06:50:36;2.25;;;1.35;;
27778;SDS011;30234;48.090;11.464;2023-03-23T06:54:37;3.80;;;1.50;;
27778;SDS011;30234;48.090;11.464;2023-03-23T06:58:38;2.08;;;1.88;;
27778;SDS011;30234;48.090;11.464;2023-03-23T07:02:39;1.90;;;1.70;;
27778;SDS011;30234;48.090;11.464;2023-03-23T07:06:40;3.70;;;1.42;;
27778;SDS011;30234;48.090;11.464;2023-03-23T07:10:41;2.40;;;1.30;;
27778;SDS011;30234;48.090;11.464;2023-03-23T07:14:42;3.72;;;1.58;;
27778;SDS011;30234;48.090;11.464;2023-03-23T07:18:43;2.97;;;1.90;;
27778;SDS011;30234;48.090;11.464;2023-03-23T07:22:44;2.38;;;1.50;;
27778;SDS011;30234;48.090;11.464;2023-03-23T07:26:45;3.08;;;1.58;;
27778;SDS011;30234;48.090;11.464;2023-03-23T07:30:46;2.33;;;1.13;;
27778;SDS011;30234;48.090;11.464;2023-03-23T07:34:47;4.15;;;1.40;;
27778;SDS011;30234;48.090;11.464;2023-03-23T07:38:48;1.65;;;1.55;;
27778;SDS011;30234;48.090;11.464;2023-03-23T07:42:53;2.20;;;1.45;;
27778;SDS011;30234;48.090;11.464;2023-03-23T07:46:56;1.15;;;1.05;;
27778;SDS011;30234;48.090;11.464;2023-03-23T07:50:58;2.35;;;1.20;;
27778;SDS011;30234;48.090;11.464;2023-03-23T07:54:59;1.58;;;1.10;;
27778;SDS011;30234;48.090;11.464;2023-03-23T07:59:03;1.70;;;1.50;;
27778;SDS011;30234;48.090;11.464;2023-03-23T08:03:07;3.70;;;1.13;;
27778;SDS011;30234;48.090;11.464;2023-03-23T08:07:08;3.92;;;1.33;;
27778;SDS011;30234;48.090;11.464;2023-03-23T08:11:12;1.73;;;1.50;;
27778;SDS011;30234;48.090;11.464;2023-03-23T08:15:15;2.72;;;1.50;;
27778;SDS011;30234;48.090;11.464;2023-03-23T08:19:16;3.28;;;1.52;;
27778;SDS011;30234;48.090;11.464;2023-03-23T08:23:17;3.47;;;1.70;;
27778;SDS011;30234;48.090;11.464;2023-03-23T08:27:17;1.42;;;1.33;;
27778;SDS011;30234;48.090;11.464;2023-03-23T08:31:18;1.75;;;1.42;;
27778;SDS011;30234;48.090;11.464;2023-03-23T08:35:19;1.77;;;1.42;;
27778;SDS011;30234;48.090;11.464;2023-03-23T08:39:20;2.60;;;1.30;;
27778;SDS011;30234;48.090;11.464;2023-03-23T08:43:23;1.52;;;1.23;;
27778;SDS011;30234;48.090;11.464;2023-03-23T08:47:24;2.63;;;1.83;;
27778;SDS011;30234;48.090;11.464;2023-03-23T08:51:25;2.58;;;1.35;;
27778;SDS011;30234;48.090;11.464;2023-03-23T08:55:26;1.88;;;1.33;;
27778;SDS011;30234;48.090;11.464;2023-03-23T08:59:29;2.85;;;1.30;;
27778;SDS011;30234;48.090;11.464;2023-03-23T09:03:30;6.75;;;1.35;;
27778;SDS011;30234;48.090;11.464;2023-03-23T09:07:31;4.18;;;1.40;;
27778;SDS011;30234;48.090;11.464;2023-03-23T09:11:33;2.70;;;1.60;;
27778;SDS011;30234;48.090;11.464;2023-03-23T09:15:34;3.33;;;2.20;;
27778;SDS011;30234;48.090;11.464;2023-03-23T09:19:36;1.70;;;1.50;;
27778;SDS011;30234;48.090;11.464;2023-03-23T09:23:37;2.35;;;1.92;;
27778;SDS011;30234;48.090;11.464;2023-03-23T09:27:39;5.03;;;2.40;;
27778;SDS011;30234;48.090;11.464;2023-03-23T09:31:41;5.43;;;2.40;;
27778;SDS011;30234;48.090;11.464;2023-03-23T09:35:43;5.05;;;2.47;;
27778;SDS011;30234;48.090;11.464;2023-03-23T09:39:44;3.80;;;2.47;;
27778;SDS011;30234;48.090;11.464;2023-03-23T09:43:59;3.72;;;2.30;;
27778;SDS011;30234;48.090;11.464;2023-03-23T09:48:42;4.63;;;3.55;;
27778;SDS011;30234;48.090;11.464;2023-03-23T09:52:55;4.80;;;3.10;;
27778;SDS011;30234;48.090;11.464;2023-03-23T09:57:01;6.80;;;3.10;;
27778;SDS011;30234;48.090;11.464;2023-03-23T10:01:14;6.38;;;3.50;;
27778;SDS011;30234;48.090;11.464;2023-03-23T10:05:26;8.00;;;3.30;;
27778;SDS011;30234;48.090;11.464;2023-03-23T10:09:35;6.35;;;3.33;;
27778;SDS011;30234;48.090;11.464;2023-03-23T10:18:36;4.38;;;3.10;;
27778;SDS011;30234;48.090;11.464;2023-03-23T10:22:51;4.30;;;2.70;;
27778;SDS011;30234;48.090;11.464;2023-03-23T10:31:29;5.43;;;2.63;;
27778;SDS011;30234;48.090;11.464;2023-03-23T10:35:37;4.53;;;2.92;;
27778;SDS011;30234;48.090;11.464;2023-03-23T10:39:53;7.72;;;3.03;;
27778;SDS011;30234;48.090;11.464;2023-03-23T10:43:57;5.95;;;3.40;;
27778;SDS011;30234;48.090;11.464;2023-03-23T10:48:00;3.00;;;2.42;;
27778;SDS011;30234;48.090;11.464;2023-03-23T10:52:41;6.93;;;2.72;;
27778;SDS011;30234;48.090;11.464;2023-03-23T10:56:44;4.72;;;2.72;;
27778;SDS011;30234;48.090;11.464;2023-03-23T11:00:45;3.30;;;2.17;;
27778;SDS011;30234;48.090;11.464;2023-03-23T11:04:54;3.13;;;2.35;;
27778;SDS011;30234;48.090;11.464;2023-03-23T11:09:02;2.63;;;2.22;;
27778;SDS011;30234;48.090;11.464;2023-03-23T11:13:12;4.57;;;2.20;;
27778;SDS011;30234;48.090;11.464;2023-03-23T11:17:20;4.15;;;2.33;;
27778;SDS011;30234;48.090;11.464;2023-03-23T11:21:27;5.35;;;1.98;;
27778;SDS011;30234;48.090;11.464;2023-03-23T11:25:28;4.53;;;2.05;;
27778;SDS011;30234;48.090;11.464;2023-03-23T11:29:29;4.50;;;2.00;;
27778;SDS011;30234;48.090;11.464;2023-03-23T11:37:51;4.63;;;2.42;;
27778;SDS011;30234;48.090;11.464;2023-03-23T11:42:02;2.78;;;1.98;;
27778;SDS011;30234;48.090;11.464;2023-03-23T11:50:50;6.93;;;3.03;;
27778;SDS011;30234;48.090;11.464;2023-03-23T11:55:01;10.68;;;2.33;;
27778;SDS011;30234;48.090;11.464;2023-03-23T11:59:26;3.97;;;2.35;;
27778;SDS011;30234;48.090;11.464;2023-03-23T12:12:31;8.27;;;3.63;;
27778;SDS011;30234;48.090;11.464;2023-03-23T12:30:09;3.67;;;2.55;;
27778;SDS011;30234;48.090;11.464;2023-03-23T12:38:45;3.88;;;2.25;;
27778;SDS011;30234;48.090;11.464;2023-03-23T12:43:05;3.97;;;1.98;;
27778;SDS011;30234;48.090;11.464;2023-03-23T12:52:10;1.70;;;1.60;;
27778;SDS011;30234;48.090;11.464;2023-03-23T12:56:28;2.60;;;1.25;;
27778;SDS011;30234;48.090;11.464;2023-03-23T13:00:52;2.03;;;1.42;;
27778;SDS011;30234;48.090;11.464;2023-03-23T13:05:24;2.72;;;1.52;;
27778;SDS011;30234;48.090;11.464;2023-03-23T13:09:43;3.50;;;1.70;;
27778;SDS011;30234;48.090;11.464;2023-03-23T13:13:59;3.75;;;1.85;;
27778;SDS011;30234;48.090;11.464;2023-03-23T13:18:46;5.00;;;1.35;;
27778;SDS011;30234;48.090;11.464;2023-03-23T13:23:15;3.78;;;1.20;;
27778;SDS011;30234;48.090;11.464;2023-03-23T13:27:44;3.55;;;1.25;;
27778;SDS011;30234;48.090;11.464;2023-03-23T13:32:09;2.35;;;1.42;;
27778;SDS011;30234;48.090;11.464;2023-03-23T13:36:26;3.78;;;1.40;;
27778;SDS011;30234;48.090;11.464;2023-03-23T13:40:41;1.70;;;1.23;;
27778;SDS011;30234;48.090;11.464;2023-03-23T13:44:54;1.75;;;1.20;;
27778;SDS011;30234;48.090;11.464;2023-03-23T13:53:28;2.92;;;1.20;;
27778;SDS011;30234;48.090;11.464;2023-03-23T13:57:57;2.15;;;1.35;;
27778;SDS011;30234;48.090;11.464;2023-03-23T14:06:39;1.98;;;1.30;;
27778;SDS011;30234;48.090;11.464;2023-03-23T14:14:46;1.27;;;1.10;;
27778;SDS011;30234;48.090;11.464;2023-03-23T14:18:58;6.38;;;1.17;;
27778;SDS011;30234;48.090;11.464;2023-03-23T14:23:01;2.65;;;1.20;;
27778;SDS011;30234;48.090;11.464;2023-03-23T14:27:08;3.90;;;1.88;;
27778;SDS011;30234;48.090;11.464;2023-03-23T14:31:25;1.88;;;1.40;;
27778;SDS011;30234;48.090;11.464;2023-03-23T14:35:32;1.90;;;1.33;;
27778;SDS011;30234;48.090;11.464;2023-03-23T14:39:36;1.95;;;1.20;;
27778;SDS011;30234;48.090;11.464;2023-03-23T14:43:37;1.42;;;1.33;;
27778;SDS011;30234;48.090;11.464;2023-03-23T14:47:39;3.17;;;1.10;;
27778;SDS011;30234;48.090;11.464;2023-03-23T14:51:49;3.33;;;1.23;;
27778;SDS011;30234;48.090;11.464;2023-03-23T14:55:53;2.88;;;1.17;;
27778;SDS011;30234;48.090;11.464;2023-03-23T14:59:56;2.58;;;1.30;;
27778;SDS011;30234;48.090;11.464;2023-03-23T15:04:15;1.63;;;1.48;;
27778;SDS011;30234;48.090;11.464;2023-03-23T15:08:24;3.85;;;1.33;;
27778;SDS011;30234;48.090;11.464;2023-03-23T15:12:31;2.47;;;1.25;;
27778;SDS011;30234;48.090;11.464;2023-03-23T15:16:34;3.38;;;1.52;;
27778;SDS011;30234;48.090;11.464;2023-03-23T15:24:45;2.67;;;1.50;;
27778;SDS011;30234;48.090;11.464;2023-03-23T15:28:48;1.70;;;1.40;;
27778;SDS011;30234;48.090;11.464;2023-03-23T15:32:53;2.50;;;1.52;;
27778;SDS011;30234;48.090;11.464;2023-03-23T15:37:01;2.72;;;1.38;;
27778;SDS011;30234;48.090;11.464;2023-03-23T15:41:05;4.95;;;1.38;;
27778;SDS011;30234;48.090;11.464;2023-03-23T15:45:23;2.50;;;1.40;;
27778;SDS011;30234;48.090;11.464;2023-03-23T15:49:27;5.43;;;1.50;;
27778;SDS011;30234;48.090;11.464;2023-03-23T15:53:35;3.40;;;1.67;;
27778;SDS011;30234;48.090;11.464;2023-03-23T15:57:40;2.13;;;1.25;;
27778;SDS011;30234;48.090;11.464;2023-03-23T16:01:41;2.22;;;1.23;;
27778;SDS011;30234;48.090;11.464;2023-03-23T16:05:42;1.70;;;1.45;;
27778;SDS011;30234;48.090;11.464;2023-03-23T16:09:43;1.85;;;1.38;;
27778;SDS011;30234;48.090;11.464;2023-03-23T16:13:44;2.17;;;1.17;;
27778;SDS011;30234;48.090;11.464;2023-03-23T16:17:45;1.50;;;1.25;;
27778;SDS011;30234;48.090;11.464;2023-03-23T16:21:46;1.88;;;1.42;;
27778;SDS011;30234;48.090;11.464;2023-03-23T16:25:47;3.95;;;1.55;;
27778;SDS011;30234;48.090;11.464;2023-03-23T16:29:49;2.80;;;1.67;;
27778;SDS011;30234;48.090;11.464;2023-03-23T16:33:50;2.25;;;1.42;;
27778;SDS011;30234;48.090;11.464;2023-03-23T16:37:52;3.25;;;1.08;;
27778;SDS011;30234;48.090;11.464;2023-03-23T16:41:55;1.88;;;1.23;;
27778;SDS011;30234;48.090;11.464;2023-03-23T16:45:56;1.40;;;0.90;;
27778;SDS011;30234;48.090;11.464;2023-03-23T16:49:57;3.45;;;1.20;;
27778;SDS011;30234;48.090;11.464;2023-03-23T16:53:58;2.28;;;1.50;;
27778;SDS011;30234;48.090;11.464;2023-03-23T16:57:59;4.95;;;1.70;;
27778;SDS011;30234;48.090;11.464;2023-03-23T17:02:00;2.97;;;2.03;;
27778;SDS011;30234;48.090;11.464;2023-03-23T17:06:02;3.25;;;1.90;;
27778;SDS011;30234;48.090;11.464;2023-03-23T17:10:05;2.25;;;1.55;;
27778;SDS011;30234;48.090;11.464;2023-03-23T17:14:08;2.08;;;1.58;;
27778;SDS011;30234;48.090;11.464;2023-03-23T17:18:09;4.25;;;1.83;;
27778;SDS011;30234;48.090;11.464;2023-03-23T17:22:10;2.03;;;1.20;;
27778;SDS011;30234;48.090;11.464;2023-03-23T17:26:11;2.60;;;1.50;;
27778;SDS011;30234;48.090;11.464;2023-03-23T17:30:12;3.65;;;1.50;;
27778;SDS011;30234;48.090;11.464;2023-03-23T17:34:13;1.45;;;1.30;;
27778;SDS011;30234;48.090;11.464;2023-03-23T17:38:14;3.08;;;1.35;;
27778;SDS011;30234;48.090;11.464;2023-03-23T17:42:16;3.00;;;1.70;;
27778;SDS011;30234;48.090;11.464;2023-03-23T17:46:17;3.08;;;1.95;;
27778;SDS011;30234;48.090;11.464;2023-03-23T17:50:18;4.13;;;2.47;;
27778;SDS011;30234;48.090;11.464;2023-03-23T17:54:19;4.72;;;3.25;;
27778;SDS011;30234;48.090;11.464;2023-03-23T17:58:21;3.15;;;1.52;;
27778;SDS011;30234;48.090;11.464;2023-03-23T18:02:24;3.50;;;1.70;;
27778;SDS011;30234;48.090;11.464;2023-03-23T18:06:25;3.75;;;1.50;;
27778;SDS011;30234;48.090;11.464;2023-03-23T18:10:26;6.15;;;1.90;;
27778;SDS011;30234;48.090;11.464;2023-03-23T18:14:27;2.53;;;1.40;;
27778;SDS011;30234;48.090;11.464;2023-03-23T18:18:28;6.28;;;1.48;;
27778;SDS011;30234;48.090;11.464;2023-03-23T18:22:30;1.67;;;1.25;;
27778;SDS011;30234;48.090;11.464;2023-03-23T18:26:31;2.13;;;1.70;;
27778;SDS011;30234;48.090;11.464;2023-03-23T18:30:32;1.80;;;1.40;;
27778;SDS011;30234;48.090;11.464;2023-03-23T18:34:34;2.25;;;1.83;;
27778;SDS011;30234;48.090;11.464;2023-03-23T18:38:37;1.85;;;1.50;;
27778;SDS011;30234;48.090;11.464;2023-03-23T18:42:38;2.30;;;1.65;;
27778;SDS011;30234;48.090;11.464;2023-03-23T18:46:43;1.38;;;1.23;;
27778;SDS011;30234;48.090;11.464;2023-03-23T18:50:46;3.10;;;1.50;;
27778;SDS011;30234;48.090;11.464;2023-03-23T18:54:48;4.43;;;1.90;;
27778;SDS011;30234;48.090;11.464;2023-03-23T18:58:50;2.05;;;1.50;;
27778;SDS011;30234;48.090;11.464;2023-03-23T19:02:52;2.83;;;1.60;;
27778;SDS011;30234;48.090;11.464;2023-03-23T19:06:53;3.47;;;1.70;;
27778;SDS011;30234;48.090;11.464;2023-03-23T19:10:55;2.25;;;1.55;;
27778;SDS011;30234;48.090;11.464;2023-03-23T19:15:02;5.78;;;3.15;;
27778;SDS011;30234;48.090;11.464;2023-03-23T19:19:04;4.18;;;1.40;;
27778;SDS011;30234;48.090;11.464;2023-03-23T19:23:07;3.42;;;2.40;;
27778;SDS011;30234;48.090;11.464;2023-03-23T19:27:09;1.98;;;1.50;;
27778;SDS011;30234;48.090;11.464;2023-03-23T19:31:10;2.65;;;1.35;;
27778;SDS011;30234;48.090;11.464;2023-03-23T19:35:14;1.50;;;1.38;;
27778;SDS011;30234;48.090;11.464;2023-03-23T19:39:15;1.95;;;1.35;;
27778;SDS011;30234;48.090;11.464;2023-03-23T19:43:16;4.88;;;1.77;;
27778;SDS011;30234;48.090;11.464;2023-03-23T19:47:18;1.85;;;1.17;;
27778;SDS011;30234;48.090;11.464;2023-03-23T19:51:19;2.65;;;1.50;;
27778;SDS011;30234;48.090;11.464;2023-03-23T19:55:21;2.05;;;1.58;;
27778;SDS011;30234;48.090;11.464;2023-03-23T19:59:22;2.30;;;1.30;;
27778;SDS011;30234;48.090;11.464;2023-03-23T20:03:24;5.50;;;1.63;;
27778;SDS011;30234;48.090;11.464;2023-03-23T20:07:25;4.32;;;2.10;;
27778;SDS011;30234;48.090;11.464;2023-03-23T20:11:27;3.72;;;1.75;;
27778;SDS011;30234;48.090;11.464;2023-03-23T20:15:29;1.60;;;1.50;;
27778;SDS011;30234;48.090;11.464;2023-03-23T20:19:31;2.30;;;1.35;;
27778;SDS011;30234;48.090;11.464;2023-03-23T20:23:33;2.08;;;1.70;;
27778;SDS011;30234;48.090;11.464;2023-03-23T20:27:35;3.15;;;1.65;;
27778;SDS011;30234;48.090;11.464;2023-03-23T20:31:37;3.80;;;1.45;;
27778;SDS011;30234;48.090;11.464;2023-03-23T20:35:40;2.50;;;1.60;;
27778;SDS011;30234;48.090;11.464;2023-03-23T20:39:41;2.78;;;1.80;;
27778;SDS011;30234;48.090;11.464;2023-03-23T20:43:44;21.52;;;11.13;;
27778;SDS011;30234;48.090;11.464;2023-03-23T20:47:45;28.25;;;12.50;;
27778;SDS011;30234;48.090;11.464;2023-03-23T20:51:46;7.85;;;4.57;;
27778;SDS011;30234;48.090;11.464;2023-03-23T20:55:48;2.30;;;1.70;;
27778;SDS011;30234;48.090;11.464;2023-03-23T20:59:50;4.97;;;1.83;;
27778;SDS011;30234;48.090;11.464;2023-03-23T21:03:52;3.85;;;1.85;;
27778;SDS011;30234;48.090;11.464;2023-03-23T21:07:55;5.32;;;2.22;;
27778;SDS011;30234;48.090;11.464;2023-03-23T21:11:57;3.97;;;2.10;;
27778;SDS011;30234;48.090;11.464;2023-03-23T21:16:02;3.38;;;2.20;;
27778;SDS011;30234;48.090;11.464;2023-03-23T21:20:03;4.97;;;1.90;;
27778;SDS011;30234;48.090;11.464;2023-03-23T21:24:07;5.38;;;1.90;;
27778;SDS011;30234;48.090;11.464;2023-03-23T21:28:10;3.28;;;2.10;;
27778;SDS011;30234;48.090;11.464;2023-03-23T21:32:12;5.35;;;1.73;;
27778;SDS011;30234;48.090;11.464;2023-03-23T21:36:13;3.83;;;1.90;;
27778;SDS011;30234;48.090;11.464;2023-03-23T21:40:14;2.30;;;1.77;;
27778;SDS011;30234;48.090;11.464;2023-03-23T21:44:16;4.88;;;2.38;;
27778;SDS011;30234;48.090;11.464;2023-03-23T21:48:17;3.30;;;2.05;;
27778;SDS011;30234;48.090;11.464;2023-03-23T21:52:21;2.35;;;1.80;;
27778;SDS011;30234;48.090;11.464;2023-03-23T21:56:24;2.88;;;2.10;;
27778;SDS011;30234;48.090;11.464;2023-03-23T22:00:27;4.22;;;1.70;;
27778;SDS011;30234;48.090;11.464;2023-03-23T22:04:28;4.25;;;2.00;;
27778;SDS011;30234;48.090;11.464;2023-03-23T22:08:48;2.53;;;1.90;;
27778;SDS011;30234;48.090;11.464;2023-03-23T22:12:49;4.05;;;1.70;;
27778;SDS011;30234;48.090;11.464;2023-03-23T22:16:51;3.63;;;1.45;;
27778;SDS011;30234;48.090;11.464;2023-03-23T22:20:52;2.78;;;2.08;;
27778;SDS011;30234;48.090;11.464;2023-03-23T22:24:53;2.95;;;2.00;;
27778;SDS011;30234;48.090;11.464;2023-03-23T22:28:54;3.08;;;2.05;;
27778;SDS011;30234;48.090;11.464;2023-03-23T22:32:55;4.70;;;1.65;;
27778;SDS011;30234;48.090;11.464;2023-03-23T22:36:56;3.08;;;2.08;;
27778;SDS011;30234;48.090;11.464;2023-03-23T22:40:58;3.88;;;2.20;;
27778;SDS011;30234;48.090;11.464;2023-03-23T22:45:03;3.15;;;2.25;;
27778;SDS011;30234;48.090;11.464;2023-03-23T22:49:08;2.45;;;2.08;;
27778;SDS011;30234;48.090;11.464;2023-03-23T22:53:09;3.17;;;2.10;;
27778;SDS011;30234;48.090;11.464;2023-03-23T22:57:10;4.57;;;2.28;;
27778;SDS011;30234;48.090;11.464;2023-03-23T23:01:13;4.80;;;2.33;;
27778;SDS011;30234;48.090;11.464;2023-03-23T23:05:17;4.43;;;2.30;;
27778;SDS011;30234;48.090;11.464;2023-03-23T23:09:18;3.55;;;2.30;;
27778;SDS011;30234;48.090;11.464;2023-03-23T23:13:19;3.83;;;2.58;;
27778;SDS011;30234;48.090;11.464;2023-03-23T23:17:20;3.35;;;2.63;;
27778;SDS011;30234;48.090;11.464;2023-03-23T23:21:22;3.63;;;2.63;;
27778;SDS011;30234;48.090;11.464;2023-03-23T23:25:26;5.20;;;3.00;;
27778;SDS011;30234;48.090;11.464;2023-03-23T23:29:28;5.57;;;2.90;;
27778;SDS011;30234;48.090;11.464;2023-03-23T23:33:28;4.82;;;2.80;;
27778;SDS011;30234;48.090;11.464;2023-03-23T23:37:29;3.83;;;2.45;;
27778;SDS011;30234;48.090;11.464;2023-03-23T23:41:30;5.15;;;3.03;;
27778;SDS011;30234;48.090;11.464;2023-03-23T23:45:36;6.75;;;3.10;;
27778;SDS011;30234;48.090;11.464;2023-03-23T23:49:37;3.50;;;2.85;;
27778;SDS011;30234;48.090;11.464;2023-03-23T23:53:39;5.82;;;3.28;;
27778;SDS011;30234;48.090;11.464;2023-03-23T23:57:43;5.25;;;2.92;;
